createdAt,value
2023-03-06T00:00:53.169Z,99104.33
2023-03-06T00:01:56.596Z,99102.36
2023-03-06T00:03:00.182Z,99105.59
2023-03-06T00:04:03.721Z,99102.36
2023-03-06T00:05:07.823Z,99101.64
2023-03-06T00:06:13.536Z,99103.73
2023-03-06T00:07:17.896Z,99108.95
2023-03-06T00:08:22.610Z,99101.41
2023-03-06T00:09:25.945Z,99101.91
2023-03-06T00:10:31.721Z,99106.80
2023-03-06T00:11:34.939Z,99103.90
2023-03-06T00:12:39.972Z,99105.66
2023-03-06T00:13:43.624Z,99100.73
2023-03-06T00:14:47.512Z,99097.89
2023-03-06T00:15:52.414Z,99097.70
2023-03-06T00:16:59.327Z,99096.64
2023-03-06T00:18:07.221Z,99101.09
2023-03-06T00:19:10.523Z,99097.43
2023-03-06T00:20:14.572Z,99109.34
2023-03-06T00:21:19.928Z,99092.13
2023-03-06T00:22:23.434Z,99093.97
2023-03-06T00:23:28.600Z,99102.59
2023-03-06T00:24:30.848Z,99089.85
2023-03-06T00:25:37.395Z,99093.12
2023-03-06T00:26:42.884Z,99086.97
2023-03-06T00:27:45.864Z,99088.44
2023-03-06T00:28:48.783Z,99092.69
2023-03-06T00:29:57.785Z,99094.03
2023-03-06T00:31:01.606Z,99087.89
2023-03-06T00:32:05.215Z,99088.38
2023-03-06T00:33:10.482Z,99088.10
2023-03-06T00:34:13.806Z,99091.05
2023-03-06T00:35:18.640Z,99090.50
2023-03-06T00:36:22.875Z,99085.28
2023-03-06T00:37:33.703Z,99081.53
2023-03-06T00:38:38.159Z,99087.67
2023-03-06T00:39:44.219Z,99090.05
2023-03-06T00:40:50.935Z,99092.96
2023-03-06T00:41:54.191Z,99083.20
2023-03-06T00:42:57.744Z,99093.16
2023-03-06T00:44:01.461Z,99086.17
2023-03-06T00:45:04.146Z,99079.05
2023-03-06T00:46:08.680Z,99087.80
2023-03-06T00:47:11.613Z,99091.12
2023-03-06T00:48:15.778Z,99093.45
2023-03-06T00:49:19.042Z,99084.36
2023-03-06T00:50:22.660Z,99080.90
2023-03-06T00:51:26.166Z,99081.73
2023-03-06T00:52:29.664Z,99080.65
2023-03-06T00:53:33.004Z,99085.91
2023-03-06T00:54:35.627Z,99085.06
2023-03-06T00:55:39.135Z,99085.06
2023-03-06T00:56:42.012Z,99083.06
2023-03-06T00:57:45.727Z,99086.69
2023-03-06T00:58:49.161Z,99088.16
2023-03-06T00:59:54.827Z,99087.89
2023-03-06T01:00:58.693Z,99091.91
2023-03-06T01:02:02.727Z,99098.21
2023-03-06T01:03:07.207Z,99094.58
2023-03-06T01:04:10.929Z,99097.91
2023-03-06T01:05:15.780Z,99103.78
2023-03-06T01:06:19.300Z,99102.66
2023-03-06T01:07:22.480Z,99098.89
2023-03-06T01:08:25.997Z,99102.94
2023-03-06T01:09:32.414Z,99102.29
2023-03-06T01:10:38.568Z,99103.56
2023-03-06T01:11:43.120Z,99107.58
2023-03-06T01:12:48.266Z,99107.88
2023-03-06T01:13:51.772Z,99105.89
2023-03-06T01:14:56.874Z,99108.57
2023-03-06T01:16:07.407Z,99105.66
2023-03-06T01:17:15.240Z,99100.23
2023-03-06T01:18:19.536Z,99101.52
2023-03-06T01:19:26.007Z,99097.27
2023-03-06T01:20:29.354Z,99097.14
2023-03-06T01:21:33.254Z,99093.03
2023-03-06T01:22:36.730Z,99094.98
2023-03-06T01:23:40.656Z,99094.70
2023-03-06T01:24:44.161Z,99090.55
2023-03-06T01:25:49.115Z,99078.00
2023-03-06T01:26:54.405Z,99083.75
2023-03-06T01:27:58.117Z,99083.41
2023-03-06T01:29:03.458Z,99084.26
2023-03-06T01:30:06.793Z,99077.30
2023-03-06T01:31:10.725Z,99077.75
2023-03-06T01:32:14.148Z,99081.33
2023-03-06T01:33:18.996Z,99080.36
2023-03-06T01:34:22.593Z,99076.17
2023-03-06T01:35:26.235Z,99079.09
2023-03-06T01:36:30.864Z,99075.25
2023-03-06T01:37:36.798Z,99077.52
2023-03-06T01:38:39.234Z,99074.05
2023-03-06T01:39:42.784Z,99080.06
2023-03-06T01:40:46.026Z,99073.08
2023-03-06T01:41:49.243Z,99075.30
2023-03-06T01:42:51.895Z,99074.91
2023-03-06T01:43:54.769Z,99062.50
2023-03-06T01:44:59.677Z,99073.47
2023-03-06T01:46:23.715Z,99076.77
2023-03-06T01:47:27.142Z,99071.37
2023-03-06T01:48:29.681Z,99064.39
2023-03-06T01:49:35.950Z,99066.02
2023-03-06T01:50:39.825Z,99065.79
2023-03-06T01:51:48.670Z,99063.61
2023-03-06T01:52:54.971Z,99069.09
2023-03-06T01:53:59.462Z,99062.53
2023-03-06T01:55:14.454Z,99063.24
2023-03-06T01:56:18.135Z,99059.33
2023-03-06T01:57:21.955Z,99068.60
2023-03-06T01:58:25.361Z,99064.36
2023-03-06T01:59:31.257Z,99064.16
2023-03-06T02:00:36.363Z,99062.92
2023-03-06T02:01:40.777Z,99059.00
2023-03-06T02:02:48.572Z,99058.87
2023-03-06T02:03:51.540Z,99066.54
2023-03-06T02:04:54.802Z,99060.18
2023-03-06T02:05:58.558Z,99070.70
2023-03-06T02:07:05.051Z,99067.53
2023-03-06T02:08:12.001Z,99070.33
2023-03-06T02:09:17.639Z,99071.70
2023-03-06T02:10:22.106Z,99072.26
2023-03-06T02:11:25.389Z,99075.45
2023-03-06T02:12:29.198Z,99067.75
2023-03-06T02:13:33.019Z,99062.80
2023-03-06T02:14:36.466Z,99073.11
2023-03-06T02:15:39.711Z,99063.34
2023-03-06T02:16:46.841Z,99068.15
2023-03-06T02:17:54.362Z,99066.74
2023-03-06T02:18:59.722Z,99068.70
2023-03-06T02:20:22.770Z,99066.68
2023-03-06T02:21:29.342Z,99061.58
2023-03-06T02:22:36.927Z,99064.69
2023-03-06T02:23:45.193Z,99060.93
2023-03-06T02:24:57.402Z,99058.06
2023-03-06T02:26:00.766Z,99054.47
2023-03-06T02:27:05.212Z,99061.26
2023-03-06T02:28:09.857Z,99053.33
2023-03-06T02:29:13.685Z,99062.30
2023-03-06T02:30:18.138Z,99058.48
2023-03-06T02:31:23.538Z,99056.66
2023-03-06T02:32:26.371Z,99066.05
2023-03-06T02:33:31.405Z,99060.83
2023-03-06T02:34:39.351Z,99069.22
2023-03-06T02:35:49.659Z,99066.91
2023-03-06T02:36:54.818Z,99066.84
2023-03-06T02:37:59.274Z,99058.77
2023-03-06T02:39:02.890Z,99061.55
2023-03-06T02:40:12.969Z,99063.17
2023-03-06T02:41:16.995Z,99059.46
2023-03-06T02:42:24.884Z,99057.70
2023-03-06T02:43:36.569Z,99059.20
2023-03-06T02:44:40.147Z,99057.23
2023-03-06T02:45:46.738Z,99056.39
2023-03-06T02:46:49.129Z,99053.71
2023-03-06T02:47:52.028Z,99058.16
2023-03-06T02:48:56.556Z,99051.09
2023-03-06T02:50:00.200Z,99054.33
2023-03-06T02:51:02.957Z,99063.24
2023-03-06T02:52:07.815Z,99055.61
2023-03-06T02:53:13.405Z,99064.55
2023-03-06T02:54:17.946Z,99055.02
2023-03-06T02:55:22.608Z,99054.11
2023-03-06T02:56:26.010Z,99051.42
2023-03-06T02:57:29.340Z,99048.95
2023-03-06T02:58:32.904Z,99049.66
2023-03-06T02:59:35.598Z,99052.14
2023-03-06T03:00:40.319Z,99051.86
2023-03-06T03:01:44.567Z,99056.03
2023-03-06T03:02:47.834Z,99052.64
2023-03-06T03:03:52.104Z,99051.36
2023-03-06T03:04:58.637Z,99049.53
2023-03-06T03:06:04.789Z,99053.71
2023-03-06T03:07:08.878Z,99059.91
2023-03-06T03:08:13.231Z,99055.23
2023-03-06T03:09:16.619Z,99051.88
2023-03-06T03:10:21.077Z,99057.23
2023-03-06T03:11:26.357Z,99057.86
2023-03-06T03:12:31.323Z,99062.08
2023-03-06T03:13:37.126Z,99054.23
2023-03-06T03:14:41.915Z,99057.92
2023-03-06T03:15:45.634Z,99056.16
2023-03-06T03:16:49.522Z,99057.02
2023-03-06T03:17:54.071Z,99059.82
2023-03-06T03:18:57.476Z,99052.58
2023-03-06T03:20:02.028Z,99055.73
2023-03-06T03:21:11.201Z,99056.03
2023-03-06T03:22:14.183Z,99054.53
2023-03-06T03:23:17.364Z,99060.41
2023-03-06T03:24:19.937Z,99056.03
2023-03-06T03:25:25.712Z,99062.08
2023-03-06T03:26:32.255Z,99052.58
2023-03-06T03:27:37.351Z,99054.53
2023-03-06T03:28:40.090Z,99050.71
2023-03-06T03:29:45.581Z,99055.67
2023-03-06T03:30:48.203Z,99052.58
2023-03-06T03:31:52.078Z,99049.44
2023-03-06T03:32:55.691Z,99046.41
2023-03-06T03:33:59.175Z,99054.80
2023-03-06T03:35:06.488Z,99053.95
2023-03-06T03:36:12.761Z,99051.14
2023-03-06T03:37:18.463Z,99054.80
2023-03-06T03:38:22.483Z,99054.34
2023-03-06T03:39:27.340Z,99050.94
2023-03-06T03:40:32.540Z,99057.14
2023-03-06T03:41:37.406Z,99051.40
2023-03-06T03:42:42.496Z,99062.38
2023-03-06T03:43:46.400Z,99058.91
2023-03-06T03:44:50.633Z,99063.34
2023-03-06T03:45:55.078Z,99059.23
2023-03-06T03:46:59.954Z,99057.05
2023-03-06T03:48:06.105Z,99055.71
2023-03-06T03:49:08.839Z,99060.31
2023-03-06T03:50:12.614Z,99053.33
2023-03-06T03:51:16.154Z,99055.41
2023-03-06T03:52:23.187Z,99056.78
2023-03-06T03:53:25.566Z,99054.86
2023-03-06T03:54:34.600Z,99051.76
2023-03-06T03:55:39.154Z,99055.64
2023-03-06T03:56:41.721Z,99053.16
2023-03-06T03:57:47.109Z,99048.55
2023-03-06T03:58:51.125Z,99042.23
2023-03-06T03:59:54.533Z,99055.71
2023-03-06T04:01:00.788Z,99054.17
2023-03-06T04:02:08.740Z,99051.34
2023-03-06T04:03:14.967Z,99050.25
2023-03-06T04:04:19.927Z,99057.17
2023-03-06T04:05:23.754Z,99048.30
2023-03-06T04:06:29.576Z,99055.77
2023-03-06T04:07:33.270Z,99051.69
2023-03-06T04:08:37.079Z,99058.55
2023-03-06T04:09:40.374Z,99052.41
2023-03-06T04:10:45.783Z,99049.21
2023-03-06T04:11:49.579Z,99046.80
2023-03-06T04:12:53.408Z,99055.53
2023-03-06T04:13:57.851Z,99063.96
2023-03-06T04:15:00.729Z,99060.02
2023-03-06T04:16:03.719Z,99059.11
2023-03-06T04:17:08.582Z,99061.52
2023-03-06T04:18:11.963Z,99061.78
2023-03-06T04:19:16.629Z,99058.61
2023-03-06T04:20:20.343Z,99059.39
2023-03-06T04:21:24.596Z,99062.20
2023-03-06T04:22:29.422Z,99056.39
2023-03-06T04:23:32.403Z,99058.74
2023-03-06T04:24:35.932Z,99054.91
2023-03-06T04:25:39.747Z,99064.88
2023-03-06T04:26:44.925Z,99062.68
2023-03-06T04:27:49.599Z,99068.34
2023-03-06T04:28:52.972Z,99067.92
2023-03-06T04:29:56.902Z,99066.09
2023-03-06T04:31:00.513Z,99066.22
2023-03-06T04:32:04.543Z,99058.48
2023-03-06T04:33:08.982Z,99066.31
2023-03-06T04:34:30.804Z,99071.37
2023-03-06T04:35:35.776Z,99074.91
2023-03-06T04:36:44.573Z,99066.45
2023-03-06T04:37:48.490Z,99073.14
2023-03-06T04:38:54.220Z,99072.75
2023-03-06T04:39:58.434Z,99072.88
2023-03-06T04:41:02.989Z,99074.70
2023-03-06T04:42:06.469Z,99069.29
2023-03-06T04:43:08.731Z,99078.59
2023-03-06T04:44:14.952Z,99075.75
2023-03-06T04:45:18.473Z,99077.67
2023-03-06T04:46:22.067Z,99074.73
2023-03-06T04:47:31.233Z,99080.67
2023-03-06T04:48:37.573Z,99076.30
2023-03-06T04:49:40.937Z,99071.60
2023-03-06T04:50:44.567Z,99084.19
2023-03-06T04:51:46.903Z,99074.47
2023-03-06T04:52:50.180Z,99082.90
2023-03-06T04:53:53.610Z,99083.33
2023-03-06T04:54:56.925Z,99085.09
2023-03-06T04:56:00.875Z,99085.94
2023-03-06T04:57:04.428Z,99077.00
2023-03-06T04:58:11.890Z,99085.39
2023-03-06T04:59:15.084Z,99081.59
2023-03-06T05:00:21.838Z,99078.75
2023-03-06T05:01:25.180Z,99086.76
2023-03-06T05:02:28.672Z,99087.44
2023-03-06T05:03:32.233Z,99094.09
2023-03-06T05:04:35.426Z,99086.81
2023-03-06T05:05:39.693Z,99084.36
2023-03-06T05:06:42.545Z,99089.36
2023-03-06T05:07:46.473Z,99096.28
2023-03-06T05:08:49.801Z,99089.09
2023-03-06T05:09:54.624Z,99093.97
2023-03-06T05:10:59.728Z,99090.70
2023-03-06T05:12:03.850Z,99094.58
2023-03-06T05:13:07.338Z,99095.23
2023-03-06T05:14:10.635Z,99092.48
2023-03-06T05:15:13.296Z,99095.16
2023-03-06T05:16:17.268Z,99098.56
2023-03-06T05:17:20.512Z,99100.25
2023-03-06T05:18:23.191Z,99096.66
2023-03-06T05:19:27.619Z,99097.64
2023-03-06T05:20:30.203Z,99104.20
2023-03-06T05:21:33.809Z,99101.86
2023-03-06T05:22:39.209Z,99098.97
2023-03-06T05:23:45.648Z,99106.60
2023-03-06T05:24:49.205Z,99103.06
2023-03-06T05:25:51.475Z,99098.83
2023-03-06T05:26:55.827Z,99107.38
2023-03-06T05:27:59.226Z,99107.14
2023-03-06T05:29:02.731Z,99105.69
2023-03-06T05:30:05.920Z,99107.20
2023-03-06T05:31:09.627Z,99111.05
2023-03-06T05:32:12.987Z,99112.68
2023-03-06T05:33:16.022Z,99108.63
2023-03-06T05:34:19.474Z,99115.70
2023-03-06T05:35:24.745Z,99111.03
2023-03-06T05:36:31.133Z,99121.25
2023-03-06T05:37:36.521Z,99117.51
2023-03-06T05:38:39.802Z,99112.91
2023-03-06T05:39:43.009Z,99113.59
2023-03-06T05:40:46.500Z,99114.51
2023-03-06T05:41:48.753Z,99102.80
2023-03-06T05:42:52.168Z,99122.17
2023-03-06T05:43:55.449Z,99119.02
2023-03-06T05:45:01.994Z,99115.97
2023-03-06T05:46:07.111Z,99115.23
2023-03-06T05:47:13.344Z,99119.16
2023-03-06T05:48:16.681Z,99117.97
2023-03-06T05:49:20.288Z,99113.72
2023-03-06T05:50:26.833Z,99117.80
2023-03-06T05:51:30.755Z,99121.84
2023-03-06T05:52:34.051Z,99117.33
2023-03-06T05:53:37.558Z,99116.59
2023-03-06T05:54:41.685Z,99122.60
2023-03-06T05:55:44.596Z,99116.20
2023-03-06T05:56:48.906Z,99113.94
2023-03-06T05:57:52.620Z,99119.16
2023-03-06T05:58:59.064Z,99114.34
2023-03-06T06:00:01.287Z,99117.80
2023-03-06T06:01:11.908Z,99118.58
2023-03-06T06:02:15.529Z,99123.33
2023-03-06T06:03:19.291Z,99114.63
2023-03-06T06:04:24.826Z,99132.88
2023-03-06T06:05:30.314Z,99117.80
2023-03-06T06:06:33.299Z,99121.20
2023-03-06T06:07:36.383Z,99114.93
2023-03-06T06:08:40.863Z,99112.70
2023-03-06T06:09:46.162Z,99117.36
2023-03-06T06:10:53.225Z,99111.18
2023-03-06T06:12:03.245Z,99119.08
2023-03-06T06:13:06.756Z,99120.77
2023-03-06T06:14:11.608Z,99126.22
2023-03-06T06:15:14.799Z,99120.17
2023-03-06T06:16:19.445Z,99120.09
2023-03-06T06:17:22.539Z,99114.61
2023-03-06T06:18:26.055Z,99120.53
2023-03-06T06:19:30.927Z,99117.44
2023-03-06T06:20:34.525Z,99114.61
2023-03-06T06:21:39.000Z,99111.91
2023-03-06T06:22:41.666Z,99118.64
2023-03-06T06:23:44.624Z,99123.77
2023-03-06T06:24:48.770Z,99118.02
2023-03-06T06:25:52.355Z,99111.44
2023-03-06T06:26:58.766Z,99117.54
2023-03-06T06:28:04.066Z,99123.78
2023-03-06T06:29:07.189Z,99133.25
2023-03-06T06:30:11.914Z,99140.11
2023-03-06T06:31:15.113Z,99144.02
2023-03-06T06:32:18.756Z,99149.36
2023-03-06T06:33:22.335Z,99157.40
2023-03-06T06:34:26.462Z,99166.20
2023-03-06T06:35:30.634Z,99173.60
2023-03-06T06:36:34.440Z,99173.11
2023-03-06T06:37:36.652Z,99178.34
2023-03-06T06:38:40.169Z,99186.11
2023-03-06T06:39:43.490Z,99187.22
2023-03-06T06:40:58.403Z,99194.26
2023-03-06T06:42:14.706Z,99192.52
2023-03-06T06:43:00.916Z,99195.55
2023-03-06T06:44:08.811Z,99194.26
2023-03-06T06:45:13.319Z,99195.86
2023-03-06T06:46:53.321Z,99194.09
2023-03-06T06:47:24.442Z,99197.30
2023-03-06T06:48:27.893Z,99197.81
2023-03-06T06:49:32.796Z,99199.86
2023-03-06T06:50:37.187Z,99193.06
2023-03-06T06:51:41.042Z,99190.11
2023-03-06T06:52:44.247Z,99183.58
2023-03-06T06:53:46.890Z,99195.27
2023-03-06T06:54:52.588Z,99184.22
2023-03-06T06:55:57.822Z,99194.24
2023-03-06T06:57:01.165Z,99189.69
2023-03-06T06:58:05.515Z,99197.25
2023-03-06T06:59:16.447Z,99197.55
2023-03-06T07:00:16.415Z,99199.95
2023-03-06T07:01:20.207Z,99197.17
2023-03-06T07:02:24.750Z,99194.47
2023-03-06T07:03:29.200Z,99200.64
2023-03-06T07:04:35.215Z,99205.83
2023-03-06T07:05:38.516Z,99199.99
2023-03-06T07:06:42.181Z,99205.48
2023-03-06T07:07:45.426Z,99200.14
2023-03-06T07:08:49.017Z,99195.34
2023-03-06T07:09:51.464Z,99204.63
2023-03-06T07:10:54.868Z,99199.75
2023-03-06T07:11:57.742Z,99202.21
2023-03-06T07:13:00.217Z,99199.23
2023-03-06T07:14:03.616Z,99201.69
2023-03-06T07:15:07.952Z,99205.49
2023-03-06T07:16:11.954Z,99199.06
2023-03-06T07:17:15.302Z,99208.64
2023-03-06T07:18:18.429Z,99204.84
2023-03-06T07:19:21.757Z,99199.51
2023-03-06T07:20:25.386Z,99205.00
2023-03-06T07:21:28.768Z,99208.12
2023-03-06T07:22:50.013Z,99209.66
2023-03-06T07:23:41.433Z,99204.76
2023-03-06T07:24:45.041Z,99206.25
2023-03-06T07:25:48.752Z,99207.63
2023-03-06T07:26:52.365Z,99211.95
2023-03-06T07:27:55.751Z,99205.84
2023-03-06T07:29:00.129Z,99208.56
2023-03-06T07:30:02.864Z,99209.05
2023-03-06T07:31:10.261Z,99207.53
2023-03-06T07:32:12.927Z,99205.38
2023-03-06T07:33:16.138Z,99210.13
2023-03-06T07:34:19.612Z,99218.71
2023-03-06T07:35:23.848Z,99215.44
2023-03-06T07:36:27.354Z,99222.26
2023-03-06T07:37:31.173Z,99227.13
2023-03-06T07:38:34.394Z,99229.95
2023-03-06T07:39:37.589Z,99246.02
2023-03-06T07:40:43.986Z,99250.52
2023-03-06T07:41:47.384Z,99247.08
2023-03-06T07:42:50.892Z,99241.66
2023-03-06T07:43:57.012Z,99244.91
2023-03-06T07:45:03.665Z,99241.16
2023-03-06T07:46:07.757Z,99237.88
2023-03-06T07:47:12.846Z,99242.95
2023-03-06T07:48:16.762Z,99236.03
2023-03-06T07:49:20.007Z,99237.16
2023-03-06T07:50:23.548Z,99238.07
2023-03-06T07:51:27.090Z,99246.71
2023-03-06T07:52:31.736Z,99245.23
2023-03-06T07:53:35.866Z,99245.80
2023-03-06T07:54:40.417Z,99254.27
2023-03-06T07:55:43.711Z,99250.88
2023-03-06T07:56:46.999Z,99258.18
2023-03-06T07:57:51.237Z,99259.94
2023-03-06T07:58:55.980Z,99259.00
2023-03-06T07:59:58.488Z,99261.02
2023-03-06T08:01:06.346Z,99268.81
2023-03-06T08:02:11.532Z,99266.46
2023-03-06T08:03:15.837Z,99272.95
2023-03-06T08:04:19.645Z,99277.46
2023-03-06T08:05:23.103Z,99287.45
2023-03-06T08:06:32.032Z,99280.31
2023-03-06T08:07:35.428Z,99280.70
2023-03-06T08:08:40.185Z,99289.77
2023-03-06T08:09:42.341Z,99293.63
2023-03-06T08:10:50.124Z,99305.69
2023-03-06T08:11:54.402Z,99294.87
2023-03-06T08:12:56.713Z,99288.66
2023-03-06T08:14:00.466Z,99289.64
2023-03-06T08:15:03.120Z,99277.87
2023-03-06T08:16:08.015Z,99284.61
2023-03-06T08:17:11.346Z,99288.12
2023-03-06T08:18:13.596Z,99277.64
2023-03-06T08:19:16.813Z,99287.38
2023-03-06T08:20:20.634Z,99286.34
2023-03-06T08:21:26.344Z,99283.45
2023-03-06T08:22:29.081Z,99282.42
2023-03-06T08:23:35.356Z,99281.47
2023-03-06T08:24:39.459Z,99276.21
2023-03-06T08:25:42.844Z,99273.58
2023-03-06T08:26:46.023Z,99279.58
2023-03-06T08:27:49.641Z,99280.45
2023-03-06T08:28:56.175Z,99277.55
2023-03-06T08:29:59.887Z,99274.38
2023-03-06T08:31:11.283Z,99279.30
2023-03-06T08:32:14.593Z,99269.63
2023-03-06T08:33:19.117Z,99269.02
2023-03-06T08:34:28.032Z,99267.84
2023-03-06T08:35:31.433Z,99268.42
2023-03-06T08:36:35.129Z,99268.79
2023-03-06T08:37:37.981Z,99273.77
2023-03-06T08:38:41.600Z,99272.50
2023-03-06T08:39:44.284Z,99269.18
2023-03-06T08:40:48.311Z,99272.20
2023-03-06T08:41:51.452Z,99275.79
2023-03-06T08:42:55.009Z,99274.88
2023-03-06T08:44:00.284Z,99274.78
2023-03-06T08:45:03.572Z,99275.05
2023-03-06T08:46:07.976Z,99270.29
2023-03-06T08:47:12.479Z,99281.97
2023-03-06T08:48:17.019Z,99283.25
2023-03-06T08:49:19.368Z,99284.01
2023-03-06T08:50:22.877Z,99287.40
2023-03-06T08:51:26.166Z,99295.12
2023-03-06T08:52:31.142Z,99292.58
2023-03-06T08:53:42.987Z,99292.48
2023-03-06T08:54:39.603Z,99289.11
2023-03-06T08:55:43.224Z,99296.56
2023-03-06T08:56:46.834Z,99289.89
2023-03-06T08:57:49.129Z,99287.42
2023-03-06T08:58:55.785Z,99291.57
2023-03-06T09:00:11.544Z,99302.78
2023-03-06T09:01:20.650Z,99301.50
2023-03-06T09:02:24.128Z,99302.45
2023-03-06T09:03:27.697Z,99303.21
2023-03-06T09:04:32.979Z,99312.14
2023-03-06T09:05:39.197Z,99313.28
2023-03-06T09:06:43.978Z,99293.52
2023-03-06T09:07:47.150Z,99301.23
2023-03-06T09:08:52.972Z,99313.94
2023-03-06T09:09:59.030Z,99319.22
2023-03-06T09:11:03.215Z,99321.29
2023-03-06T09:12:05.784Z,99326.03
2023-03-06T09:13:17.193Z,99318.66
2023-03-06T09:14:23.578Z,99312.25
2023-03-06T09:15:27.170Z,99319.10
2023-03-06T09:16:34.088Z,99311.69
2023-03-06T09:17:38.415Z,99329.16
2023-03-06T09:18:45.624Z,99316.06
2023-03-06T09:19:48.919Z,99309.45
2023-03-06T09:20:51.782Z,99304.70
2023-03-06T09:21:56.002Z,99307.29
2023-03-06T09:22:59.839Z,99306.74
2023-03-06T09:24:04.392Z,99312.48
2023-03-06T09:25:09.665Z,99320.61
2023-03-06T09:26:14.313Z,99316.22
2023-03-06T09:27:17.614Z,99308.92
2023-03-06T09:28:21.051Z,99323.19
2023-03-06T09:29:24.410Z,99316.91
2023-03-06T09:30:28.778Z,99330.28
2023-03-06T09:31:32.681Z,99316.91
2023-03-06T09:32:36.802Z,99326.05
2023-03-06T09:33:40.324Z,99317.50
2023-03-06T09:34:43.827Z,99317.41
2023-03-06T09:35:49.003Z,99322.99
2023-03-06T09:36:57.459Z,99317.81
2023-03-06T09:37:57.579Z,99322.75
2023-03-06T09:39:00.248Z,99322.31
2023-03-06T09:40:06.368Z,99319.77
2023-03-06T09:41:10.620Z,99324.94
2023-03-06T09:42:15.869Z,99321.73
2023-03-06T09:43:22.518Z,99334.69
2023-03-06T09:44:30.711Z,99335.00
2023-03-06T09:45:36.006Z,99337.54
2023-03-06T09:46:44.565Z,99331.43
2023-03-06T09:47:52.125Z,99332.88
2023-03-06T09:49:10.876Z,99340.63
2023-03-06T09:50:23.077Z,99333.92
2023-03-06T09:51:28.336Z,99335.31
2023-03-06T09:52:37.336Z,99341.66
2023-03-06T09:54:06.233Z,99347.05
2023-03-06T09:55:17.364Z,99336.51
2023-03-06T09:56:24.107Z,99334.78
2023-03-06T09:57:29.176Z,99333.95
2023-03-06T09:58:33.727Z,99338.76
2023-03-06T09:59:41.202Z,99346.05
2023-03-06T10:00:50.378Z,99329.18
2023-03-06T10:01:58.396Z,99326.62
2023-03-06T10:03:11.915Z,99332.27
2023-03-06T10:04:30.912Z,99337.36
2023-03-06T10:05:37.913Z,99337.27
2023-03-06T10:06:49.132Z,99338.27
2023-03-06T10:07:57.132Z,99328.45
2023-03-06T10:09:06.615Z,99341.93
2023-03-06T10:10:13.034Z,99330.55
2023-03-06T10:11:19.130Z,99332.07
2023-03-06T10:12:28.992Z,99343.34
2023-03-06T10:13:35.861Z,99332.50
2023-03-06T10:14:50.429Z,99330.80
2023-03-06T10:15:55.846Z,99325.84
2023-03-06T10:16:59.317Z,99325.38
2023-03-06T10:18:03.273Z,99330.20
2023-03-06T10:19:08.629Z,99338.05
2023-03-06T10:20:20.070Z,99330.16
2023-03-06T10:21:31.789Z,99324.80
2023-03-06T10:22:38.986Z,99333.09
2023-03-06T10:23:45.524Z,99336.38
2023-03-06T10:24:50.570Z,99340.29
2023-03-06T10:26:05.003Z,99335.64
2023-03-06T10:27:28.095Z,99327.44
2023-03-06T10:28:35.319Z,99325.73
2023-03-06T10:29:41.014Z,99317.21
2023-03-06T10:30:52.219Z,99337.79
2023-03-06T10:31:58.512Z,99342.59
2023-03-06T10:33:03.899Z,99337.58
2023-03-06T10:34:17.232Z,99326.45
2023-03-06T10:35:23.152Z,99328.16
2023-03-06T10:36:29.047Z,99332.09
2023-03-06T10:37:32.668Z,99329.64
2023-03-06T10:38:39.536Z,99329.63
2023-03-06T10:39:43.119Z,99327.09
2023-03-06T10:42:15.193Z,99329.20
2023-03-06T10:43:17.857Z,99341.16
2023-03-06T10:44:26.400Z,99336.98
2023-03-06T10:45:40.548Z,99340.17
2023-03-06T10:46:38.609Z,99341.50
2023-03-06T10:47:41.567Z,99333.12
2023-03-06T10:48:47.087Z,99334.45
2023-03-06T10:50:01.555Z,99340.38
2023-03-06T10:51:25.575Z,99339.97
2023-03-06T10:52:29.874Z,99335.36
2023-03-06T10:53:33.304Z,99342.09
2023-03-06T10:54:39.394Z,99338.20
2023-03-06T10:55:44.606Z,99339.97
2023-03-06T10:56:48.696Z,99351.15
2023-03-06T10:57:55.232Z,99341.86
2023-03-06T10:59:15.762Z,99338.48
2023-03-06T11:00:36.646Z,99342.44
2023-03-06T11:01:45.684Z,99344.36
2023-03-06T11:03:05.851Z,99331.52
2023-03-06T11:04:31.024Z,99342.26
2023-03-06T11:05:34.199Z,99334.61
2023-03-06T11:06:38.947Z,99336.91
2023-03-06T11:07:46.482Z,99329.33
2023-03-06T11:08:48.871Z,99331.67
2023-03-06T11:09:58.954Z,99328.24
2023-03-06T11:11:07.154Z,99324.94
2023-03-06T11:12:19.440Z,99332.84
2023-03-06T11:13:23.783Z,99349.89
2023-03-06T11:14:27.933Z,99346.14
2023-03-06T11:15:34.868Z,99339.39
2023-03-06T11:16:39.318Z,99329.64
2023-03-06T11:17:50.438Z,99348.38
2023-03-06T11:19:07.123Z,99348.48
2023-03-06T11:20:25.765Z,99354.41
2023-03-06T11:21:31.791Z,99352.80
2023-03-06T11:22:36.227Z,99347.88
2023-03-06T11:23:40.553Z,99355.59
2023-03-06T11:24:45.728Z,99367.75
2023-03-06T11:25:50.997Z,99374.59
2023-03-06T11:26:55.656Z,99365.20
2023-03-06T11:28:00.941Z,99367.58
2023-03-06T11:29:21.811Z,99367.70
2023-03-06T11:30:27.900Z,99363.92
2023-03-06T11:31:32.392Z,99358.50
2023-03-06T11:32:45.144Z,99357.87
2023-03-06T11:33:56.392Z,99362.84
2023-03-06T11:35:04.064Z,99372.25
2023-03-06T11:36:12.249Z,99348.22
2023-03-06T11:37:31.487Z,99375.44
2023-03-06T11:38:43.925Z,99356.70
2023-03-06T11:39:50.147Z,99364.25
2023-03-06T11:40:55.748Z,99354.39
2023-03-06T11:42:05.381Z,99359.53
2023-03-06T11:43:28.330Z,99368.11
2023-03-06T11:44:38.155Z,99365.82
2023-03-06T11:46:00.848Z,99364.27
2023-03-06T11:47:19.857Z,99366.80
2023-03-06T11:48:37.496Z,99363.84
2023-03-06T11:49:48.890Z,99366.94
2023-03-06T11:50:56.743Z,99356.82
2023-03-06T11:52:04.736Z,99356.62
2023-03-06T11:53:15.390Z,99357.08
2023-03-06T11:54:21.561Z,99357.84
2023-03-06T11:55:29.734Z,99373.84
2023-03-06T11:57:59.704Z,99375.35
2023-03-06T11:59:13.073Z,99386.10
2023-03-06T12:00:32.054Z,99393.70
2023-03-06T12:01:57.927Z,99381.69
2023-03-06T12:03:24.796Z,99383.63
2023-03-06T12:04:44.491Z,99385.34
2023-03-06T12:05:48.637Z,99389.36
2023-03-06T12:06:53.921Z,99397.91
2023-03-06T12:08:05.361Z,99385.07
2023-03-06T12:09:16.905Z,99390.48
2023-03-06T12:10:23.844Z,99389.75
2023-03-06T12:11:32.681Z,99379.98
2023-03-06T12:12:41.331Z,99387.80
2023-03-06T12:13:46.075Z,99388.16
2023-03-06T12:14:59.047Z,99389.19
2023-03-06T12:16:24.005Z,99386.02
2023-03-06T12:17:32.413Z,99389.86
2023-03-06T12:18:37.697Z,99388.92
2023-03-06T12:19:52.569Z,99390.73
2023-03-06T12:20:57.761Z,99392.69
2023-03-06T12:22:02.920Z,99388.17
2023-03-06T12:23:28.058Z,99394.41
2023-03-06T12:24:45.875Z,99386.20
2023-03-06T12:25:50.633Z,99394.77
2023-03-06T12:28:10.373Z,99397.66
2023-03-06T12:29:30.599Z,99389.42
2023-03-06T12:30:45.397Z,99396.80
2023-03-06T12:31:59.227Z,99388.91
2023-03-06T12:33:07.759Z,99392.84
2023-03-06T12:34:13.030Z,99395.84
2023-03-06T12:35:18.583Z,99392.70
2023-03-06T12:36:26.831Z,99405.28
2023-03-06T12:37:32.515Z,99400.48
2023-03-06T12:38:41.672Z,99407.39
2023-03-06T12:40:11.635Z,99396.27
2023-03-06T12:41:28.598Z,99398.00
2023-03-06T12:42:45.457Z,99399.49
2023-03-06T12:44:11.197Z,99407.52
2023-03-06T12:45:31.397Z,99400.48
2023-03-06T12:46:43.286Z,99405.05
2023-03-06T12:47:47.941Z,99407.70
2023-03-06T12:48:54.893Z,99395.12
2023-03-06T12:49:59.013Z,99394.55
2023-03-06T12:51:02.746Z,99395.89
2023-03-06T12:52:08.893Z,99402.45
2023-03-06T12:53:16.854Z,99403.00
2023-03-06T12:54:22.914Z,99401.30
2023-03-06T12:55:27.728Z,99400.63
2023-03-06T12:56:32.052Z,99399.08
2023-03-06T12:57:37.769Z,99401.19